Kailua, HI

4:05 AM HST on August 22, 2014 (GMT -1000)
Kailua Beach | Change Station
CLOSE
Current Station
Personal Weather Station
Location: Kailua, HI
Elevation: 0 ft
Nearby Weather Stations

Elev 0 ft 21.40 °N, 157.73 °W | Updated 12 minutes ago

Mostly Cloudy
Mostly Cloudy
78.8 °F
Feels Like 82 °F
N
5.0
Wind Variable Wind from East
Gusts 7.0 mph

Today
High -- | Low -- °F
--% Chance of Precip.
Yesterday
High -- | Low -- °F
Precip. -- in
6:11 AM 6:55 PM
Waning Crescent, 8% visible
Pressure 29.99 in
Visibility 10.0 miles
Clouds Few 2400 ft
Scattered Clouds 3900 ft
Mostly Cloudy 5000 ft
Heat Index 82 °F
Dew Point 73 °F
Humidity 81%
Rainfall 0.00 in
Snow Depth Not available.
UV 0 out of 12
Pollen Not available.
Air Quality Not available.
Flu Activity Not available.
METAR PHNL 221353Z 06007KT 10SM FEW024 SCT039 BKN050 26/19 A2999 RMK AO2 SLP153 T02610194

More Conditions Fewer Conditions

Pressure 29.99 in
Visibility 10.0 miles
Clouds Few 2400 ft
Scattered Clouds 3900 ft
Mostly Cloudy 5000 ft
Heat Index 82 °F
Dew Point 73 °F
Humidity 81%
Rainfall 0.00 in
Snow Depth Not available.
UV 0 out of 12
Pollen Not available.
Air Quality Not available.
Flu Activity Not available.
METAR PHNL 221353Z 06007KT 10SM FEW024 SCT039 BKN050 26/19 A2999 RMK AO2 SLP153 T02610194

More Conditions Fewer Conditions

10-Day Weather Forecast

Almanac

Astronomy

Aug. 22, 2014 Rise Set
Actual Time 6:11 AM HST 6:55 PM HST
Civil Twilight 5:48 AM HST 7:18 PM HST
Nautical Twilight 5:21 AM HST 7:45 PM HST
Astronomical Twilight 4:54 AM HST 8:12 PM HST
Moon 3:52 AM HST 5:05 PM HST
Length of Visible Light 13h 29m
Length of Day
12h 43m
Tomorrow will be 1m 7s shorter.
Waning Crescent, 8% of the Moon is Illuminated
Today
Waning Crescent
Aug 25
New
Sep 2
First Quarter
Sep 8
Full
Sep 15
Last Quarter

Today's Extremes

State Highs State Lows

Community

WunderPhotos

Upload Photos

1,746,171 photos uploaded!

Nearby

Snow Depth

Station Depth Elevation
No new snow has been reported.

Earthquake Activity

City Distance Mag. Time & Date
No recent earthquake activity has been reported nearby.
Minimum magnitude displayed is 2.5.

Coastal Water Temperatures

Place Temperature
No Stations Reporting

Nearby Weather Stations